createdAt,value
2022-09-28T00:02:57.852Z,99444.09
2022-09-28T00:06:08.287Z,99449.41
2022-09-28T00:09:10.670Z,99445.25
2022-09-28T00:12:12.627Z,99446.91
2022-09-28T00:15:14.736Z,99443.13
2022-09-28T00:18:16.724Z,99443.97
2022-09-28T00:21:23.973Z,99442.53
2022-09-28T00:24:27.757Z,99447.50
2022-09-28T00:27:29.955Z,99433.31
2022-09-28T00:30:32.021Z,99430.25
2022-09-28T00:33:33.950Z,99427.31
2022-09-28T00:36:35.911Z,99431.91
2022-09-28T00:39:41.396Z,99435.22
2022-09-28T00:42:45.142Z,99416.09
2022-09-28T00:45:59.057Z,99398.97
2022-09-28T00:49:09.474Z,99423.28
2022-09-28T00:52:16.276Z,99421.38
2022-09-28T00:55:22.809Z,99416.78
2022-09-28T00:58:29.956Z,99416.44
2022-09-28T01:01:31.996Z,99424.59
2022-09-28T01:04:33.977Z,99422.22
2022-09-28T01:07:37.291Z,99413.22
2022-09-28T01:10:40.740Z,99407.44
2022-09-28T01:13:43.482Z,99408.28
2022-09-28T01:16:56.901Z,99399.19
2022-09-28T01:20:33.484Z,99414.06
2022-09-28T01:24:10.401Z,99409.69
2022-09-28T01:27:41.521Z,99418.09
2022-09-28T01:30:56.364Z,99400.84
2022-09-28T01:34:05.455Z,99408.84
2022-09-28T01:37:10.015Z,99412.66
2022-09-28T01:40:15.018Z,99406.16
2022-09-28T01:43:28.785Z,99370.50
2022-09-28T01:46:37.308Z,99370.25
2022-09-28T01:49:48.414Z,99396.91
2022-09-28T01:53:01.113Z,99403.19
2022-09-28T01:56:13.103Z,99393.84
2022-09-28T01:59:23.185Z,99401.31
2022-09-28T02:02:32.633Z,99377.84
2022-09-28T02:05:38.899Z,99404.25
2022-09-28T02:08:50.572Z,99405.06
2022-09-28T02:12:00.014Z,99406.75
2022-09-28T02:15:33.781Z,99405.06
2022-09-28T02:18:36.612Z,99409.34
2022-09-28T02:22:02.928Z,99410.75
2022-09-28T02:25:28.915Z,99411.56
2022-09-28T02:28:31.695Z,99378.75
2022-09-28T02:31:33.968Z,99424.09
2022-09-28T02:34:36.220Z,99432.25
2022-09-28T02:37:40.045Z,99432.03
2022-09-28T02:40:47.590Z,99434.75
2022-09-28T02:44:03.858Z,99437.47
2022-09-28T02:47:24.554Z,99441.81
2022-09-28T02:50:46.724Z,99442.91
2022-09-28T02:53:54.520Z,99449.97
2022-09-28T02:57:05.269Z,99457.31
2022-09-28T03:00:15.216Z,99455.66
2022-09-28T03:03:31.372Z,99446.91
2022-09-28T03:06:55.018Z,99448.81
2022-09-28T03:10:24.543Z,99440.66
2022-09-28T03:13:28.550Z,99433.09
2022-09-28T03:16:32.248Z,99435.81
2022-09-28T03:19:35.066Z,99430.84
2022-09-28T03:22:37.235Z,99415.00
2022-09-28T03:25:39.520Z,99446.91
2022-09-28T03:28:41.569Z,99444.19
2022-09-28T03:31:49.229Z,99451.88
2022-09-28T03:34:51.960Z,99446.69
2022-09-28T03:37:57.228Z,99440.91
2022-09-28T03:41:01.506Z,99443.84
2022-09-28T03:44:09.302Z,99443.00
2022-09-28T03:47:11.599Z,99457.78
2022-09-28T03:50:13.867Z,99456.94
2022-09-28T03:53:15.841Z,99447.97
2022-09-28T03:56:18.421Z,99451.50
2022-09-28T03:59:21.097Z,99454.22
2022-09-28T04:02:23.098Z,99460.75
2022-09-28T04:05:25.082Z,99460.75
2022-09-28T04:08:27.589Z,99453.63
2022-09-28T04:11:38.511Z,99455.06
2022-09-28T04:14:52.022Z,99431.56
2022-09-28T04:17:54.075Z,99466.19
2022-09-28T04:21:14.184Z,99469.94
2022-09-28T04:24:26.696Z,99476.22
2022-09-28T04:27:47.504Z,99472.44
2022-09-28T04:30:49.899Z,99484.94
2022-09-28T04:33:52.331Z,99486.59
2022-09-28T04:36:54.659Z,99472.44
2022-09-28T04:39:56.865Z,99480.13
2022-09-28T04:42:58.928Z,99490.72
2022-09-28T04:46:03.012Z,99492.38
2022-09-28T04:49:11.905Z,99484.22
2022-09-28T04:52:24.550Z,99484.81
2022-09-28T04:55:32.360Z,99461.91
2022-09-28T04:58:35.128Z,99480.34
2022-09-28T05:01:37.834Z,99488.97
2022-09-28T05:04:59.414Z,99480.94
2022-09-28T05:08:11.416Z,99490.00
2022-09-28T05:11:14.290Z,99491.69
2022-09-28T05:14:16.903Z,99488.84
2022-09-28T05:17:18.879Z,99494.88
2022-09-28T05:20:20.925Z,99506.31
2022-09-28T05:23:22.902Z,99502.78
2022-09-28T05:26:25.180Z,99507.84
2022-09-28T05:29:31.353Z,99506.47
2022-09-28T05:32:52.752Z,99505.16
2022-09-28T05:36:13.133Z,99506.81
2022-09-28T05:39:17.139Z,99512.81
2022-09-28T05:42:20.293Z,99508.22
2022-09-28T05:45:22.362Z,99510.94
2022-09-28T05:48:25.392Z,99511.53
2022-09-28T05:51:28.171Z,99518.41
2022-09-28T05:54:30.181Z,99521.69
2022-09-28T05:57:32.385Z,99520.03
2022-09-28T06:00:35.322Z,99519.69
2022-09-28T06:03:37.988Z,99530.66
2022-09-28T06:06:53.843Z,99532.56
2022-09-28T06:09:56.737Z,99535.19
2022-09-28T06:13:12.618Z,99524.53
2022-09-28T06:16:19.048Z,99531.28
2022-09-28T06:19:21.017Z,99532.78
2022-09-28T06:22:42.542Z,99516.13
2022-09-28T06:25:44.576Z,99523.94
2022-09-28T06:28:46.597Z,99527.59
2022-09-28T06:31:48.738Z,99523.31
2022-09-28T06:34:55.430Z,99525.47
2022-09-28T06:38:00.226Z,99522.41
2022-09-28T06:41:02.474Z,99530.19
2022-09-28T06:44:04.501Z,99527.25
2022-09-28T06:47:24.611Z,99518.38
2022-09-28T06:50:50.113Z,99519.91
2022-09-28T06:54:14.966Z,99519.06
2022-09-28T06:57:43.259Z,99516.81
2022-09-28T07:00:46.229Z,99518.81
2022-09-28T07:03:51.443Z,99522.38
2022-09-28T07:07:15.831Z,99518.44
2022-09-28T07:10:58.522Z,99521.84
2022-09-28T07:14:29.919Z,99517.25
2022-09-28T07:17:52.098Z,99528.81
2022-09-28T07:21:02.831Z,99536.50
2022-09-28T07:24:06.182Z,99540.88
2022-09-28T07:27:29.343Z,99536.63
2022-09-28T07:30:51.590Z,99544.56
2022-09-28T07:34:12.134Z,99532.72
2022-09-28T07:37:30.219Z,99544.78
2022-09-28T07:40:53.029Z,99555.91
2022-09-28T07:43:55.747Z,99553.63
2022-09-28T07:46:57.790Z,99553.41
2022-09-28T07:50:11.845Z,99562.66
2022-09-28T07:53:25.110Z,99559.06
2022-09-28T07:56:41.600Z,99561.34
2022-09-28T08:00:10.396Z,99557.69
2022-09-28T08:03:22.694Z,99560.84
2022-09-28T08:06:24.699Z,99548.19
2022-09-28T08:09:26.656Z,99531.44
2022-09-28T08:12:47.682Z,99542.38
2022-09-28T08:16:15.820Z,99550.63
2022-09-28T08:20:11.805Z,99570.03
2022-09-28T08:23:13.968Z,99564.34
2022-09-28T08:26:16.665Z,99581.50
2022-09-28T08:29:20.209Z,99486.19
2022-09-28T08:32:25.180Z,99576.78
2022-09-28T08:35:46.909Z,99584.81
2022-09-28T08:39:06.420Z,99592.25
2022-09-28T08:42:34.896Z,99587.66
2022-09-28T08:46:00.773Z,99594.47
2022-09-28T08:49:37.095Z,99601.81
2022-09-28T08:52:52.540Z,99596.72
2022-09-28T08:56:42.748Z,99600.25
2022-09-28T08:59:50.496Z,99603.25
2022-09-28T09:02:58.139Z,99596.25
2022-09-28T09:06:08.731Z,99607.13
2022-09-28T09:09:45.578Z,99593.19
2022-09-28T09:13:00.840Z,99604.66
2022-09-28T09:16:19.924Z,99604.41
2022-09-28T09:19:54.309Z,99602.75
2022-09-28T09:23:34.888Z,99600.59
2022-09-28T09:26:40.670Z,99601.78
2022-09-28T09:29:55.281Z,99594.19
2022-09-28T09:33:28.145Z,99595.13
2022-09-28T09:37:43.478Z,99582.69
2022-09-28T09:41:36.093Z,99593.09
2022-09-28T09:45:35.747Z,99586.81
2022-09-28T09:49:20.625Z,99597.13
2022-09-28T09:52:26.787Z,99603.97
2022-09-28T09:55:41.452Z,99567.78
2022-09-28T09:59:18.870Z,99584.44
2022-09-28T10:02:57.925Z,99602.50
2022-09-28T10:06:17.518Z,99590.31
2022-09-28T10:09:56.283Z,99598.81
2022-09-28T10:13:11.917Z,99600.78
2022-09-28T10:16:15.963Z,99590.97
2022-09-28T10:19:33.069Z,99592.06
2022-09-28T10:22:57.016Z,99597.59
2022-09-28T10:26:10.583Z,99594.28
2022-09-28T10:29:19.966Z,99601.75
2022-09-28T10:32:27.800Z,99605.63
2022-09-28T10:35:42.296Z,99586.31
2022-09-28T10:38:48.037Z,99591.59
2022-09-28T10:42:04.396Z,99597.63
2022-09-28T10:45:23.465Z,99579.34
2022-09-28T10:48:27.749Z,99598.38
2022-09-28T10:51:45.278Z,99593.97
2022-09-28T10:54:54.764Z,99595.31
2022-09-28T10:57:59.733Z,99567.19
2022-09-28T11:01:13.900Z,99577.72
2022-09-28T11:04:22.115Z,99585.75
2022-09-28T11:07:34.110Z,99586.63
2022-09-28T11:10:37.280Z,99580.78
2022-09-28T11:13:56.268Z,99580.63
2022-09-28T11:17:23.622Z,99588.06
2022-09-28T11:20:28.359Z,99587.09
2022-09-28T11:23:33.784Z,99564.63
2022-09-28T11:26:52.644Z,99583.00
2022-09-28T11:29:59.426Z,99592.03
2022-09-28T11:33:47.285Z,99584.09
2022-09-28T11:37:20.207Z,99580.06
2022-09-28T11:40:31.750Z,99589.44
2022-09-28T11:44:00.654Z,99577.56
2022-09-28T11:47:30.309Z,99580.69
2022-09-28T11:50:50.777Z,99586.97
2022-09-28T11:53:59.706Z,99575.16
2022-09-28T11:57:04.258Z,99596.47
2022-09-28T12:00:13.990Z,99601.66
2022-09-28T12:03:29.496Z,99607.13
2022-09-28T12:06:38.292Z,99607.38
2022-09-28T12:09:50.569Z,99611.19
2022-09-28T12:13:16.898Z,99609.03
2022-09-28T12:17:05.025Z,99611.44
2022-09-28T12:20:01.160Z,99608.97
2022-09-28T12:23:08.329Z,99613.44
2022-09-28T12:26:44.114Z,99612.66
2022-09-28T12:29:55.214Z,99616.22
2022-09-28T12:33:15.491Z,99621.41
2022-09-28T12:36:50.795Z,99624.13
2022-09-28T12:40:28.240Z,99621.75
2022-09-28T12:43:55.241Z,99618.50
2022-09-28T12:47:28.629Z,99625.38
2022-09-28T12:51:20.048Z,99628.94
2022-09-28T12:54:38.954Z,99630.25
2022-09-28T12:57:49.880Z,99632.66
2022-09-28T13:01:00.466Z,99635.38
2022-09-28T13:04:12.702Z,99642.50
2022-09-28T13:07:22.246Z,99631.59
2022-09-28T13:10:40.262Z,99641.69
2022-09-28T13:14:08.157Z,99635.97
2022-09-28T13:17:35.786Z,99642.75
2022-09-28T13:20:47.133Z,99646.56
2022-09-28T13:23:57.844Z,99643.75
2022-09-28T13:27:15.714Z,99654.91
2022-09-28T13:30:19.333Z,99670.59
2022-09-28T13:33:40.665Z,99667.31
2022-09-28T13:36:47.348Z,99678.22
2022-09-28T13:40:05.926Z,99659.69
2022-09-28T13:43:24.544Z,99685.88
2022-09-28T13:46:45.199Z,99691.34
2022-09-28T13:50:11.803Z,99696.78
2022-09-28T13:53:40.240Z,99699.78
2022-09-28T13:56:57.775Z,99701.19
2022-09-28T14:00:03.021Z,99700.59
2022-09-28T14:03:19.713Z,99709.03
2022-09-28T14:06:32.930Z,99709.03
2022-09-28T14:09:46.760Z,99713.41
2022-09-28T14:12:53.498Z,99716.97
2022-09-28T14:16:18.318Z,99725.25
2022-09-28T14:19:28.692Z,99727.13
2022-09-28T14:23:01.002Z,99725.97
2022-09-28T14:26:12.252Z,99728.63
2022-09-28T14:29:40.578Z,99740.00
2022-09-28T14:32:58.801Z,99733.81
2022-09-28T14:36:06.739Z,99727.69
2022-09-28T14:39:45.314Z,99735.38
2022-09-28T14:43:24.285Z,99734.16
2022-09-28T14:46:33.415Z,99733.91
2022-09-28T14:49:35.435Z,99743.91
2022-09-28T14:52:40.585Z,99745.22
2022-09-28T14:56:00.695Z,99748.94
2022-09-28T14:59:02.710Z,99759.25
2022-09-28T15:02:10.612Z,99758.09
2022-09-28T15:05:17.998Z,99745.22
2022-09-28T15:08:21.137Z,99776.00
2022-09-28T15:11:26.419Z,99771.53
2022-09-28T15:14:33.589Z,99793.31
2022-09-28T15:17:40.180Z,99793.25
2022-09-28T15:20:46.646Z,99795.28
2022-09-28T15:23:49.805Z,99800.38
2022-09-28T15:26:53.263Z,99810.22
2022-09-28T15:29:59.958Z,99809.88
2022-09-28T15:33:22.145Z,99819.59
2022-09-28T15:36:28.045Z,99820.06
2022-09-28T15:39:34.861Z,99827.91
2022-09-28T15:42:37.274Z,99832.16
2022-09-28T15:45:40.694Z,99834.50
2022-09-28T15:48:52.142Z,99833.91
2022-09-28T15:52:03.036Z,99840.91
2022-09-28T15:55:29.224Z,99828.25
2022-09-28T15:58:31.165Z,99851.09
2022-09-28T16:01:36.871Z,99854.28
2022-09-28T16:04:54.192Z,99864.25
2022-09-28T16:07:56.655Z,99876.19
2022-09-28T16:11:06.281Z,99866.97
2022-09-28T16:14:19.818Z,99871.94
2022-09-28T16:17:32.438Z,99876.81
2022-09-28T16:20:37.973Z,99877.84
2022-09-28T16:23:42.725Z,99872.41
2022-09-28T16:26:44.758Z,99877.75
2022-09-28T16:30:24.252Z,99867.56
2022-09-28T16:33:32.606Z,99869.69
2022-09-28T16:36:46.011Z,99878.09
2022-09-28T16:39:47.962Z,99875.84
2022-09-28T16:42:50.188Z,99894.44
2022-09-28T16:45:57.593Z,99897.38
2022-09-28T16:49:00.036Z,99903.66
2022-09-28T16:52:02.472Z,99906.63
2022-09-28T16:55:39.522Z,99905.19
2022-09-28T16:58:39.145Z,99910.97
2022-09-28T17:01:43.780Z,99917.00
2022-09-28T17:04:47.799Z,99913.69
2022-09-28T17:07:59.716Z,99918.16
2022-09-28T17:11:24.464Z,99919.94
2022-09-28T17:14:26.956Z,99921.59
2022-09-28T17:17:31.468Z,99933.56
2022-09-28T17:20:36.586Z,99904.94
2022-09-28T17:23:38.699Z,99933.66
2022-09-28T17:26:43.863Z,99949.34
2022-09-28T17:29:45.930Z,99959.78
2022-09-28T17:32:48.619Z,99958.34
2022-09-28T17:35:53.538Z,99964.84
2022-09-28T17:38:55.634Z,99964.25
2022-09-28T17:41:57.636Z,99961.13
2022-09-28T17:44:59.657Z,99965.75
2022-09-28T17:48:01.869Z,99974.00
2022-09-28T17:51:05.725Z,99980.28
2022-09-28T17:54:08.591Z,99984.75
2022-09-28T17:57:10.741Z,99983.75
2022-09-28T18:00:17.208Z,99988.22
2022-09-28T18:03:21.974Z,99957.97
2022-09-28T18:06:25.045Z,99994.00
2022-09-28T18:09:27.831Z,99980.59
2022-09-28T18:12:29.762Z,99976.16
2022-09-28T18:15:31.791Z,99990.97
2022-09-28T18:18:36.741Z,99984.44
2022-09-28T18:21:38.797Z,99991.16
2022-09-28T18:24:40.882Z,99993.88
2022-09-28T18:27:43.267Z,99994.88
2022-09-28T18:30:45.754Z,99995.94
2022-09-28T18:33:48.628Z,100002.34
2022-09-28T18:36:50.562Z,99998.22
2022-09-28T18:39:52.607Z,99998.22
2022-09-28T18:42:54.495Z,99975.78
2022-09-28T18:45:56.493Z,99998.59
2022-09-28T18:48:58.543Z,99990.88
2022-09-28T18:52:01.371Z,99996.06
2022-09-28T18:55:04.313Z,100005.88
2022-09-28T18:58:08.518Z,100013.00
2022-09-28T19:01:30.054Z,100010.94
2022-09-28T19:04:32.755Z,100008.72
2022-09-28T19:07:34.858Z,100013.28
2022-09-28T19:10:36.858Z,100011.44
2022-09-28T19:13:39.254Z,100014.16
2022-09-28T19:16:42.793Z,100011.19
2022-09-28T19:19:45.124Z,100014.97
2022-09-28T19:22:49.639Z,100024.78
2022-09-28T19:25:51.639Z,100026.69
2022-09-28T19:28:55.494Z,100029.63
2022-09-28T19:31:58.066Z,100032.56
2022-09-28T19:35:00.086Z,100033.84
2022-09-28T19:38:02.122Z,100032.28
2022-09-28T19:41:42.221Z,100036.88
2022-09-28T19:44:46.417Z,100041.25
2022-09-28T19:47:49.290Z,100036.88
2022-09-28T19:51:05.652Z,100035.22
2022-09-28T19:54:08.576Z,100032.97
2022-09-28T19:57:11.609Z,100029.41
2022-09-28T20:00:13.713Z,100043.28
2022-09-28T20:03:15.728Z,100038.53
2022-09-28T20:06:17.828Z,100023.03
2022-09-28T20:09:19.935Z,100031.38
2022-09-28T20:12:22.406Z,100036.94
2022-09-28T20:15:24.684Z,100052.00
2022-09-28T20:18:27.558Z,100049.03
2022-09-28T20:21:29.914Z,100043.59
2022-09-28T20:24:32.693Z,100038.41
2022-09-28T20:27:34.621Z,100051.53
2022-09-28T20:30:37.415Z,100043.59
2022-09-28T20:33:39.477Z,100035.31
2022-09-28T20:36:43.193Z,100051.00
2022-09-28T20:39:45.478Z,100049.84
2022-09-28T20:42:47.457Z,100059.00
2022-09-28T20:45:50.629Z,100054.16
2022-09-28T20:48:55.097Z,100047.06
2022-09-28T20:51:57.008Z,100034.16
2022-09-28T20:54:58.958Z,100031.06
2022-09-28T20:58:05.211Z,100032.28
2022-09-28T21:01:13.727Z,100027.13
2022-09-28T21:04:15.793Z,100042.00
2022-09-28T21:07:17.719Z,100047.44
2022-09-28T21:10:19.732Z,100052.44
2022-09-28T21:13:22.726Z,100050.78
2022-09-28T21:16:26.516Z,100050.41
2022-09-28T21:19:29.488Z,100051.44
2022-09-28T21:22:31.477Z,100055.22
2022-09-28T21:25:33.419Z,100048.59
2022-09-28T21:28:36.662Z,100058.56
2022-09-28T21:31:41.056Z,100061.66
2022-09-28T21:34:43.015Z,100058.94
2022-09-28T21:37:46.323Z,100050.63
2022-09-28T21:40:48.555Z,100062.09
2022-09-28T21:43:50.916Z,100064.38
2022-09-28T21:46:52.851Z,100071.09
2022-09-28T21:49:54.797Z,100074.63
2022-09-28T21:52:56.995Z,100078.19
2022-09-28T21:56:00.305Z,100085.06
2022-09-28T21:59:02.441Z,100090.75
2022-09-28T22:02:06.612Z,100088.22
2022-09-28T22:05:09.693Z,100057.16
2022-09-28T22:08:11.895Z,100090.13
2022-09-28T22:11:20.234Z,100098.72
2022-09-28T22:14:22.465Z,100105.22
2022-09-28T22:17:24.810Z,100106.88
2022-09-28T22:20:26.772Z,100108.78
2022-09-28T22:23:29.840Z,100097.28
2022-09-28T22:26:33.715Z,100087.31
2022-09-28T22:29:36.162Z,100100.84
2022-09-28T22:32:40.746Z,100101.69
2022-09-28T22:35:42.631Z,100098.97
2022-09-28T22:38:45.054Z,100099.78
2022-09-28T22:41:47.046Z,100094.56
2022-09-28T22:44:49.043Z,100106.69
2022-09-28T22:47:50.986Z,100115.72
2022-09-28T22:50:52.988Z,100116.84
2022-09-28T22:53:56.573Z,100106.78
2022-09-28T22:56:58.514Z,100106.56
2022-09-28T23:00:00.676Z,100102.13
2022-09-28T23:03:02.821Z,100110.28
2022-09-28T23:06:04.880Z,100102.63
2022-09-28T23:09:06.924Z,100099.97
2022-09-28T23:12:08.963Z,100108.28
2022-09-28T23:15:11.292Z,100108.06
2022-09-28T23:18:13.253Z,100112.81
2022-09-28T23:21:18.200Z,100121.22
2022-09-28T23:24:20.155Z,100125.44
2022-09-28T23:27:22.194Z,100122.91
2022-09-28T23:30:24.264Z,100124.59
2022-09-28T23:33:26.181Z,100118.34
2022-09-28T23:36:31.166Z,100122.09
2022-09-28T23:39:33.219Z,100121.66
2022-09-28T23:42:35.654Z,100117.66
2022-09-28T23:45:37.516Z,100121.84
2022-09-28T23:48:39.496Z,100121.22
2022-09-28T23:51:41.501Z,100116.59
2022-09-28T23:54:43.405Z,100118.50
2022-09-28T23:57:45.814Z,100118.88
